sensor_id;sensor_type;location;lat;lon;timestamp;temperature;humidity
1614;DHT22;800;48.824;9.346;2022-07-29T00:00:43;27.00;53.10
1614;DHT22;800;48.824;9.346;2022-07-29T00:03:12;27.10;52.60
1614;DHT22;800;48.824;9.346;2022-07-29T00:05:42;27.30;52.00
1614;DHT22;800;48.824;9.346;2022-07-29T00:08:08;27.60;51.60
1614;DHT22;800;48.824;9.346;2022-07-29T00:10:34;27.70;51.20
1614;DHT22;800;48.824;9.346;2022-07-29T00:13:00;27.70;50.80
1614;DHT22;800;48.824;9.346;2022-07-29T00:15:25;27.80;50.70
1614;DHT22;800;48.824;9.346;2022-07-29T00:17:51;27.90;50.60
1614;DHT22;800;48.824;9.346;2022-07-29T00:20:17;28.00;50.50
1614;DHT22;800;48.824;9.346;2022-07-29T00:22:43;28.00;50.50
1614;DHT22;800;48.824;9.346;2022-07-29T00:25:09;28.00;50.40
1614;DHT22;800;48.824;9.346;2022-07-29T00:27:36;28.00;50.20
1614;DHT22;800;48.824;9.346;2022-07-29T00:30:02;28.00;50.30
1614;DHT22;800;48.824;9.346;2022-07-29T00:32:28;28.00;50.50
1614;DHT22;800;48.824;9.346;2022-07-29T00:34:54;28.00;50.70
1614;DHT22;800;48.824;9.346;2022-07-29T00:37:38;27.80;51.30
1614;DHT22;800;48.824;9.346;2022-07-29T00:40:04;27.70;51.20
1614;DHT22;800;48.824;9.346;2022-07-29T00:42:30;27.80;51.30
1614;DHT22;800;48.824;9.346;2022-07-29T00:44:56;27.80;51.20
1614;DHT22;800;48.824;9.346;2022-07-29T00:47:21;27.80;51.20
1614;DHT22;800;48.824;9.346;2022-07-29T00:49:47;27.80;51.00
1614;DHT22;800;48.824;9.346;2022-07-29T00:52:13;27.90;50.80
1614;DHT22;800;48.824;9.346;2022-07-29T00:54:39;27.90;50.90
1614;DHT22;800;48.824;9.346;2022-07-29T00:57:06;27.90;51.20
1614;DHT22;800;48.824;9.346;2022-07-29T00:59:33;27.80;51.10
1614;DHT22;800;48.824;9.346;2022-07-29T01:01:59;27.70;51.40
1614;DHT22;800;48.824;9.346;2022-07-29T01:04:25;27.60;52.30
1614;DHT22;800;48.824;9.346;2022-07-29T01:06:51;27.20;53.20
1614;DHT22;800;48.824;9.346;2022-07-29T01:09:18;27.20;53.10
1614;DHT22;800;48.824;9.346;2022-07-29T01:11:45;27.30;52.70
1614;DHT22;800;48.824;9.346;2022-07-29T01:14:13;27.40;52.80
1614;DHT22;800;48.824;9.346;2022-07-29T01:17:08;27.50;52.30
1614;DHT22;800;48.824;9.346;2022-07-29T01:20:24;27.60;51.80
1614;DHT22;800;48.824;9.346;2022-07-29T01:30:29;27.60;52.30
1614;DHT22;800;48.824;9.346;2022-07-29T01:33:00;27.50;52.20
1614;DHT22;800;48.824;9.346;2022-07-29T01:35:33;27.50;52.60
1614;DHT22;800;48.824;9.346;2022-07-29T01:38:09;27.40;52.40
1614;DHT22;800;48.824;9.346;2022-07-29T01:40:48;27.40;52.60
1614;DHT22;800;48.824;9.346;2022-07-29T01:43:18;27.40;52.40
1614;DHT22;800;48.824;9.346;2022-07-29T01:45:52;27.40;52.20
1614;DHT22;800;48.824;9.346;2022-07-29T01:48:22;27.50;52.00
1614;DHT22;800;48.824;9.346;2022-07-29T01:51:01;27.50;52.20
1614;DHT22;800;48.824;9.346;2022-07-29T01:56:26;27.50;52.20
1614;DHT22;800;48.824;9.346;2022-07-29T01:58:57;27.50;52.00
1614;DHT22;800;48.824;9.346;2022-07-29T02:01:24;27.50;51.70
1614;DHT22;800;48.824;9.346;2022-07-29T02:03:52;27.60;51.50
1614;DHT22;800;48.824;9.346;2022-07-29T02:06:21;27.70;51.70
1614;DHT22;800;48.824;9.346;2022-07-29T02:08:49;27.70;51.50
1614;DHT22;800;48.824;9.346;2022-07-29T02:11:15;27.70;51.80
1614;DHT22;800;48.824;9.346;2022-07-29T02:13:41;27.50;52.60
1614;DHT22;800;48.824;9.346;2022-07-29T02:16:08;27.40;52.50
1614;DHT22;800;48.824;9.346;2022-07-29T02:18:36;27.40;52.20
1614;DHT22;800;48.824;9.346;2022-07-29T02:21:03;27.40;52.00
1614;DHT22;800;48.824;9.346;2022-07-29T02:23:31;27.50;51.80
1614;DHT22;800;48.824;9.346;2022-07-29T02:25:58;27.50;51.70
1614;DHT22;800;48.824;9.346;2022-07-29T02:28:27;27.60;51.60
1614;DHT22;800;48.824;9.346;2022-07-29T02:30:56;27.60;51.60
1614;DHT22;800;48.824;9.346;2022-07-29T02:33:23;27.60;52.10
1614;DHT22;800;48.824;9.346;2022-07-29T02:35:50;27.50;52.10
1614;DHT22;800;48.824;9.346;2022-07-29T02:38:17;27.50;52.00
1614;DHT22;800;48.824;9.346;2022-07-29T02:41:06;27.50;52.00
1614;DHT22;800;48.824;9.346;2022-07-29T02:43:34;27.50;52.10
1614;DHT22;800;48.824;9.346;2022-07-29T02:46:02;27.50;52.00
1614;DHT22;800;48.824;9.346;2022-07-29T02:48:34;27.50;51.90
1614;DHT22;800;48.824;9.346;2022-07-29T02:51:07;27.50;51.90
1614;DHT22;800;48.824;9.346;2022-07-29T02:53:34;27.50;51.90
1614;DHT22;800;48.824;9.346;2022-07-29T02:56:06;27.40;52.10
1614;DHT22;800;48.824;9.346;2022-07-29T02:58:41;27.40;52.00
1614;DHT22;800;48.824;9.346;2022-07-29T03:01:23;27.50;52.00
1614;DHT22;800;48.824;9.346;2022-07-29T03:03:51;27.50;52.00
1614;DHT22;800;48.824;9.346;2022-07-29T03:06:20;27.40;52.10
1614;DHT22;800;48.824;9.346;2022-07-29T03:08:47;27.40;52.20
1614;DHT22;800;48.824;9.346;2022-07-29T03:11:13;27.40;52.30
1614;DHT22;800;48.824;9.346;2022-07-29T03:13:40;27.30;52.60
1614;DHT22;800;48.824;9.346;2022-07-29T03:16:06;27.10;53.20
1614;DHT22;800;48.824;9.346;2022-07-29T03:18:34;27.10;52.80
1614;DHT22;800;48.824;9.346;2022-07-29T03:21:00;27.20;52.70
1614;DHT22;800;48.824;9.346;2022-07-29T03:23:26;27.20;52.50
1614;DHT22;800;48.824;9.346;2022-07-29T03:25:53;27.20;52.30
1614;DHT22;800;48.824;9.346;2022-07-29T03:28:19;27.20;52.70
1614;DHT22;800;48.824;9.346;2022-07-29T03:30:45;27.10;53.00
1614;DHT22;800;48.824;9.346;2022-07-29T03:33:11;27.00;53.30
1614;DHT22;800;48.824;9.346;2022-07-29T03:35:37;26.90;53.60
1614;DHT22;800;48.824;9.346;2022-07-29T03:38:02;26.80;53.90
1614;DHT22;800;48.824;9.346;2022-07-29T03:40:43;26.70;54.30
1614;DHT22;800;48.824;9.346;2022-07-29T03:43:11;26.70;54.90
1614;DHT22;800;48.824;9.346;2022-07-29T03:45:38;26.70;54.10
1614;DHT22;800;48.824;9.346;2022-07-29T03:48:08;26.70;53.90
1614;DHT22;800;48.824;9.346;2022-07-29T03:50:35;26.70;54.00
1614;DHT22;800;48.824;9.346;2022-07-29T03:53:02;26.70;54.10
1614;DHT22;800;48.824;9.346;2022-07-29T03:55:30;26.40;55.00
1614;DHT22;800;48.824;9.346;2022-07-29T03:57:58;26.20;56.40
1614;DHT22;800;48.824;9.346;2022-07-29T04:00:26;26.20;55.60
1614;DHT22;800;48.824;9.346;2022-07-29T04:02:52;26.30;55.20
1614;DHT22;800;48.824;9.346;2022-07-29T04:05:18;26.40;55.00
1614;DHT22;800;48.824;9.346;2022-07-29T04:07:45;26.40;54.80
1614;DHT22;800;48.824;9.346;2022-07-29T04:10:11;26.40;54.80
1614;DHT22;800;48.824;9.346;2022-07-29T04:12:37;26.50;54.80
1614;DHT22;800;48.824;9.346;2022-07-29T04:15:06;26.50;54.50
1614;DHT22;800;48.824;9.346;2022-07-29T04:17:31;26.50;54.70
1614;DHT22;800;48.824;9.346;2022-07-29T04:19:57;26.40;54.60
1614;DHT22;800;48.824;9.346;2022-07-29T04:22:23;26.50;54.70
1614;DHT22;800;48.824;9.346;2022-07-29T04:24:48;26.50;54.60
1614;DHT22;800;48.824;9.346;2022-07-29T04:27:14;26.50;54.70
1614;DHT22;800;48.824;9.346;2022-07-29T04:29:39;26.40;54.80
1614;DHT22;800;48.824;9.346;2022-07-29T04:32:05;26.40;54.70
1614;DHT22;800;48.824;9.346;2022-07-29T04:34:31;26.40;54.70
1614;DHT22;800;48.824;9.346;2022-07-29T04:36:56;26.10;55.80
1614;DHT22;800;48.824;9.346;2022-07-29T04:39:22;25.80;56.50
1614;DHT22;800;48.824;9.346;2022-07-29T04:41:48;25.90;56.40
1614;DHT22;800;48.824;9.346;2022-07-29T04:44:15;26.00;56.00
1614;DHT22;800;48.824;9.346;2022-07-29T04:46:41;26.20;55.80
1614;DHT22;800;48.824;9.346;2022-07-29T04:49:06;26.30;55.60
1614;DHT22;800;48.824;9.346;2022-07-29T04:51:32;26.00;56.20
1614;DHT22;800;48.824;9.346;2022-07-29T04:53:58;26.10;56.20
1614;DHT22;800;48.824;9.346;2022-07-29T04:56:24;26.10;56.20
1614;DHT22;800;48.824;9.346;2022-07-29T04:58:49;26.00;56.50
1614;DHT22;800;48.824;9.346;2022-07-29T05:01:15;26.00;56.50
1614;DHT22;800;48.824;9.346;2022-07-29T05:03:41;26.20;56.10
1614;DHT22;800;48.824;9.346;2022-07-29T05:06:07;26.30;55.80
1614;DHT22;800;48.824;9.346;2022-07-29T05:08:32;26.30;55.70
1614;DHT22;800;48.824;9.346;2022-07-29T05:10:58;26.20;56.20
1614;DHT22;800;48.824;9.346;2022-07-29T05:13:24;25.80;57.20
1614;DHT22;800;48.824;9.346;2022-07-29T05:15:49;25.30;58.90
1614;DHT22;800;48.824;9.346;2022-07-29T05:18:15;25.30;58.90
1614;DHT22;800;48.824;9.346;2022-07-29T05:20:41;25.30;59.00
1614;DHT22;800;48.824;9.346;2022-07-29T05:23:07;25.50;58.30
1614;DHT22;800;48.824;9.346;2022-07-29T05:25:32;25.70;57.90
1614;DHT22;800;48.824;9.346;2022-07-29T05:27:58;25.30;59.00
1614;DHT22;800;48.824;9.346;2022-07-29T05:30:24;25.20;59.40
1614;DHT22;800;48.824;9.346;2022-07-29T05:32:50;25.50;58.70
1614;DHT22;800;48.824;9.346;2022-07-29T05:35:15;25.60;58.50
1614;DHT22;800;48.824;9.346;2022-07-29T05:37:41;25.80;57.90
1614;DHT22;800;48.824;9.346;2022-07-29T05:40:07;25.90;57.70
1614;DHT22;800;48.824;9.346;2022-07-29T05:42:34;26.00;57.50
1614;DHT22;800;48.824;9.346;2022-07-29T05:45:00;26.10;57.20
1614;DHT22;800;48.824;9.346;2022-07-29T05:47:26;26.00;57.30
1614;DHT22;800;48.824;9.346;2022-07-29T05:49:51;25.80;57.90
1614;DHT22;800;48.824;9.346;2022-07-29T05:52:18;25.80;58.20
1614;DHT22;800;48.824;9.346;2022-07-29T05:54:43;26.00;57.70
1614;DHT22;800;48.824;9.346;2022-07-29T05:57:27;26.10;57.20
1614;DHT22;800;48.824;9.346;2022-07-29T05:59:53;26.20;57.00
1614;DHT22;800;48.824;9.346;2022-07-29T06:02:19;26.20;57.10
1614;DHT22;800;48.824;9.346;2022-07-29T06:04:45;26.20;57.10
1614;DHT22;800;48.824;9.346;2022-07-29T06:07:11;26.20;57.20
1614;DHT22;800;48.824;9.346;2022-07-29T06:09:36;26.00;57.70
1614;DHT22;800;48.824;9.346;2022-07-29T06:12:02;25.60;59.10
1614;DHT22;800;48.824;9.346;2022-07-29T06:14:28;25.50;59.80
1614;DHT22;800;48.824;9.346;2022-07-29T06:16:54;25.70;59.50
1614;DHT22;800;48.824;9.346;2022-07-29T06:19:20;25.70;59.50
1614;DHT22;800;48.824;9.346;2022-07-29T06:21:46;25.40;60.40
1614;DHT22;800;48.824;9.346;2022-07-29T06:24:13;25.40;60.90
1614;DHT22;800;48.824;9.346;2022-07-29T06:26:39;25.50;60.60
1614;DHT22;800;48.824;9.346;2022-07-29T06:29:06;25.50;60.50
1614;DHT22;800;48.824;9.346;2022-07-29T06:31:31;25.40;61.40
1614;DHT22;800;48.824;9.346;2022-07-29T06:33:57;25.70;60.20
1614;DHT22;800;48.824;9.346;2022-07-29T06:36:23;25.60;60.50
1614;DHT22;800;48.824;9.346;2022-07-29T06:38:48;26.00;59.60
1614;DHT22;800;48.824;9.346;2022-07-29T06:41:14;25.90;59.30
1614;DHT22;800;48.824;9.346;2022-07-29T06:43:43;25.90;59.70
1614;DHT22;800;48.824;9.346;2022-07-29T06:46:14;25.80;59.70
1614;DHT22;800;48.824;9.346;2022-07-29T06:48:41;26.00;59.20
1614;DHT22;800;48.824;9.346;2022-07-29T06:51:08;25.80;59.30
1614;DHT22;800;48.824;9.346;2022-07-29T06:53:34;26.10;58.90
1614;DHT22;800;48.824;9.346;2022-07-29T06:56:01;25.70;58.80
1614;DHT22;800;48.824;9.346;2022-07-29T06:58:28;25.80;59.30
1614;DHT22;800;48.824;9.346;2022-07-29T07:00:54;26.00;59.30
1614;DHT22;800;48.824;9.346;2022-07-29T07:03:21;26.40;58.30
1614;DHT22;800;48.824;9.346;2022-07-29T07:05:47;26.50;57.50
1614;DHT22;800;48.824;9.346;2022-07-29T07:08:13;26.40;57.50
1614;DHT22;800;48.824;9.346;2022-07-29T07:10:39;26.20;57.60
1614;DHT22;800;48.824;9.346;2022-07-29T07:13:05;26.20;57.80
1614;DHT22;800;48.824;9.346;2022-07-29T07:15:32;26.50;57.50
1614;DHT22;800;48.824;9.346;2022-07-29T07:17:57;26.50;57.50
1614;DHT22;800;48.824;9.346;2022-07-29T07:20:24;26.60;57.40
1614;DHT22;800;48.824;9.346;2022-07-29T07:22:50;26.70;57.10
1614;DHT22;800;48.824;9.346;2022-07-29T07:25:16;26.90;55.90
1614;DHT22;800;48.824;9.346;2022-07-29T07:27:43;27.10;55.80
1614;DHT22;800;48.824;9.346;2022-07-29T07:30:09;27.00;56.10
1614;DHT22;800;48.824;9.346;2022-07-29T07:32:35;27.10;56.50
1614;DHT22;800;48.824;9.346;2022-07-29T07:35:03;27.40;55.30
1614;DHT22;800;48.824;9.346;2022-07-29T07:37:28;27.20;54.80
1614;DHT22;800;48.824;9.346;2022-07-29T07:39:54;27.10;55.60
1614;DHT22;800;48.824;9.346;2022-07-29T07:42:20;27.20;55.40
1614;DHT22;800;48.824;9.346;2022-07-29T07:44:46;27.50;54.50
1614;DHT22;800;48.824;9.346;2022-07-29T07:47:14;27.50;54.20
1614;DHT22;800;48.824;9.346;2022-07-29T07:49:40;27.80;54.10
1614;DHT22;800;48.824;9.346;2022-07-29T07:52:05;27.80;53.70
1614;DHT22;800;48.824;9.346;2022-07-29T07:54:31;27.50;53.40
1614;DHT22;800;48.824;9.346;2022-07-29T07:56:57;27.60;53.40
1614;DHT22;800;48.824;9.346;2022-07-29T07:59:22;28.00;53.00
1614;DHT22;800;48.824;9.346;2022-07-29T08:01:48;28.20;52.10
1614;DHT22;800;48.824;9.346;2022-07-29T08:04:14;28.20;52.40
1614;DHT22;800;48.824;9.346;2022-07-29T08:06:40;28.10;52.60
1614;DHT22;800;48.824;9.346;2022-07-29T08:09:06;27.80;52.80
1614;DHT22;800;48.824;9.346;2022-07-29T08:11:32;28.10;53.50
1614;DHT22;800;48.824;9.346;2022-07-29T08:13:58;28.20;52.50
1614;DHT22;800;48.824;9.346;2022-07-29T08:16:23;28.50;51.80
1614;DHT22;800;48.824;9.346;2022-07-29T08:18:51;28.60;51.70
1614;DHT22;800;48.824;9.346;2022-07-29T08:21:17;28.60;51.50
1614;DHT22;800;48.824;9.346;2022-07-29T08:23:45;28.90;50.80
1614;DHT22;800;48.824;9.346;2022-07-29T08:26:14;29.20;49.80
1614;DHT22;800;48.824;9.346;2022-07-29T08:28:42;29.50;49.20
1614;DHT22;800;48.824;9.346;2022-07-29T08:31:12;29.30;48.80
1614;DHT22;800;48.824;9.346;2022-07-29T08:33:38;29.50;48.70
1614;DHT22;800;48.824;9.346;2022-07-29T08:36:05;29.70;48.70
1614;DHT22;800;48.824;9.346;2022-07-29T08:38:31;29.90;47.90
1614;DHT22;800;48.824;9.346;2022-07-29T08:40:58;30.20;47.50
1614;DHT22;800;48.824;9.346;2022-07-29T08:43:24;30.50;46.90
1614;DHT22;800;48.824;9.346;2022-07-29T08:45:51;30.60;46.90
1614;DHT22;800;48.824;9.346;2022-07-29T08:48:18;30.80;46.90
1614;DHT22;800;48.824;9.346;2022-07-29T08:50:45;30.90;45.90
1614;DHT22;800;48.824;9.346;2022-07-29T08:53:14;30.90;45.50
1614;DHT22;800;48.824;9.346;2022-07-29T08:55:45;31.10;45.00
1614;DHT22;800;48.824;9.346;2022-07-29T08:58:11;31.10;45.20
1614;DHT22;800;48.824;9.346;2022-07-29T09:00:51;31.20;44.70
1614;DHT22;800;48.824;9.346;2022-07-29T09:03:23;31.20;44.20
1614;DHT22;800;48.824;9.346;2022-07-29T09:05:49;31.40;43.90
1614;DHT22;800;48.824;9.346;2022-07-29T09:08:16;31.60;43.80
1614;DHT22;800;48.824;9.346;2022-07-29T09:10:42;31.70;43.50
1614;DHT22;800;48.824;9.346;2022-07-29T09:13:08;31.80;43.10
1614;DHT22;800;48.824;9.346;2022-07-29T09:15:34;31.90;42.30
1614;DHT22;800;48.824;9.346;2022-07-29T09:18:00;32.00;41.90
1614;DHT22;800;48.824;9.346;2022-07-29T09:20:26;31.90;41.80
1614;DHT22;800;48.824;9.346;2022-07-29T09:23:12;32.00;41.70
1614;DHT22;800;48.824;9.346;2022-07-29T09:25:40;32.20;41.80
1614;DHT22;800;48.824;9.346;2022-07-29T09:28:10;32.20;41.50
1614;DHT22;800;48.824;9.346;2022-07-29T09:30:52;32.30;41.10
1614;DHT22;800;48.824;9.346;2022-07-29T09:33:18;32.30;40.40
1614;DHT22;800;48.824;9.346;2022-07-29T09:35:44;32.20;40.90
1614;DHT22;800;48.824;9.346;2022-07-29T09:38:11;32.30;41.30
1614;DHT22;800;48.824;9.346;2022-07-29T09:40:40;32.40;41.30
1614;DHT22;800;48.824;9.346;2022-07-29T09:43:10;32.50;41.50
1614;DHT22;800;48.824;9.346;2022-07-29T09:45:36;32.70;41.20
1614;DHT22;800;48.824;9.346;2022-07-29T09:48:23;32.80;39.90
1614;DHT22;800;48.824;9.346;2022-07-29T09:50:50;33.10;39.80
1614;DHT22;800;48.824;9.346;2022-07-29T09:53:33;33.20;38.90
1614;DHT22;800;48.824;9.346;2022-07-29T09:56:00;33.30;39.20
1614;DHT22;800;48.824;9.346;2022-07-29T09:58:25;33.40;37.90
1614;DHT22;800;48.824;9.346;2022-07-29T10:00:53;33.30;37.30
1614;DHT22;800;48.824;9.346;2022-07-29T10:03:20;33.30;37.40
1614;DHT22;800;48.824;9.346;2022-07-29T10:06:04;33.20;37.30
1614;DHT22;800;48.824;9.346;2022-07-29T10:08:30;33.30;37.80
1614;DHT22;800;48.824;9.346;2022-07-29T10:11:09;33.20;37.40
1614;DHT22;800;48.824;9.346;2022-07-29T10:13:35;33.30;37.50
1614;DHT22;800;48.824;9.346;2022-07-29T10:16:01;33.50;37.50
1614;DHT22;800;48.824;9.346;2022-07-29T10:18:26;33.70;37.00
1614;DHT22;800;48.824;9.346;2022-07-29T10:20:52;33.80;36.10
1614;DHT22;800;48.824;9.346;2022-07-29T10:23:18;33.90;35.40
1614;DHT22;800;48.824;9.346;2022-07-29T10:25:45;34.00;35.10
1614;DHT22;800;48.824;9.346;2022-07-29T10:28:11;34.10;34.90
1614;DHT22;800;48.824;9.346;2022-07-29T10:30:38;34.30;35.00
1614;DHT22;800;48.824;9.346;2022-07-29T10:44:33;34.70;33.00
1614;DHT22;800;48.824;9.346;2022-07-29T10:46:59;34.70;33.50
1614;DHT22;800;48.824;9.346;2022-07-29T10:49:26;34.60;33.00
1614;DHT22;800;48.824;9.346;2022-07-29T10:52:06;34.60;33.00
1614;DHT22;800;48.824;9.346;2022-07-29T10:57:29;34.20;33.50
1614;DHT22;800;48.824;9.346;2022-07-29T11:07:24;34.10;34.20
1614;DHT22;800;48.824;9.346;2022-07-29T11:15:04;33.90;36.20
1614;DHT22;800;48.824;9.346;2022-07-29T11:23:22;33.40;39.90
1614;DHT22;800;48.824;9.346;2022-07-29T11:29:03;33.10;42.80
1614;DHT22;800;48.824;9.346;2022-07-29T11:31:39;32.90;43.60
1614;DHT22;800;48.824;9.346;2022-07-29T11:34:20;32.60;44.00
1614;DHT22;800;48.824;9.346;2022-07-29T11:39:30;32.20;45.70
1614;DHT22;800;48.824;9.346;2022-07-29T11:45:12;31.80;46.50
1614;DHT22;800;48.824;9.346;2022-07-29T11:50:16;31.30;47.50
1614;DHT22;800;48.824;9.346;2022-07-29T11:52:46;31.00;48.20
1614;DHT22;800;48.824;9.346;2022-07-29T11:55:18;30.50;49.40
1614;DHT22;800;48.824;9.346;2022-07-29T11:57:58;30.00;49.50
1614;DHT22;800;48.824;9.346;2022-07-29T12:00:33;29.80;49.80
1614;DHT22;800;48.824;9.346;2022-07-29T12:03:05;29.70;50.80
1614;DHT22;800;48.824;9.346;2022-07-29T12:05:42;29.20;51.00
1614;DHT22;800;48.824;9.346;2022-07-29T12:08:16;28.90;52.70
1614;DHT22;800;48.824;9.346;2022-07-29T12:10:45;28.30;53.20
1614;DHT22;800;48.824;9.346;2022-07-29T12:13:13;27.80;54.20
1614;DHT22;800;48.824;9.346;2022-07-29T12:15:40;27.50;54.00
1614;DHT22;800;48.824;9.346;2022-07-29T12:18:19;27.30;55.10
1614;DHT22;800;48.824;9.346;2022-07-29T12:20:46;27.40;54.50
1614;DHT22;800;48.824;9.346;2022-07-29T12:23:12;27.50;54.30
1614;DHT22;800;48.824;9.346;2022-07-29T12:25:41;27.60;53.70
1614;DHT22;800;48.824;9.346;2022-07-29T12:28:09;27.60;52.20
1614;DHT22;800;48.824;9.346;2022-07-29T12:30:41;27.60;52.90
1614;DHT22;800;48.824;9.346;2022-07-29T12:33:32;27.50;53.40
1614;DHT22;800;48.824;9.346;2022-07-29T12:36:00;27.30;54.50
1614;DHT22;800;48.824;9.346;2022-07-29T12:38:27;26.80;56.40
1614;DHT22;800;48.824;9.346;2022-07-29T12:40:54;26.60;56.90
1614;DHT22;800;48.824;9.346;2022-07-29T12:43:24;26.40;55.80
1614;DHT22;800;48.824;9.346;2022-07-29T12:45:52;26.40;57.90
1614;DHT22;800;48.824;9.346;2022-07-29T12:48:39;26.70;57.20
1614;DHT22;800;48.824;9.346;2022-07-29T12:51:07;27.00;57.10
1614;DHT22;800;48.824;9.346;2022-07-29T12:53:34;27.00;56.20
1614;DHT22;800;48.824;9.346;2022-07-29T12:56:01;26.90;55.80
1614;DHT22;800;48.824;9.346;2022-07-29T13:01:20;26.70;55.10
1614;DHT22;800;48.824;9.346;2022-07-29T13:06:44;26.60;55.80
1614;DHT22;800;48.824;9.346;2022-07-29T13:09:11;26.40;56.30
1614;DHT22;800;48.824;9.346;2022-07-29T13:11:49;26.30;57.10
1614;DHT22;800;48.824;9.346;2022-07-29T13:17:19;26.40;55.20
1614;DHT22;800;48.824;9.346;2022-07-29T13:19:51;26.70;55.10
1614;DHT22;800;48.824;9.346;2022-07-29T13:22:18;26.90;54.60
1614;DHT22;800;48.824;9.346;2022-07-29T13:24:55;27.10;54.30
1614;DHT22;800;48.824;9.346;2022-07-29T13:27:24;27.40;53.90
1614;DHT22;800;48.824;9.346;2022-07-29T13:29:50;27.50;52.30
1614;DHT22;800;48.824;9.346;2022-07-29T13:32:18;27.50;52.10
1614;DHT22;800;48.824;9.346;2022-07-29T13:34:43;27.70;52.20
1614;DHT22;800;48.824;9.346;2022-07-29T13:37:09;27.90;52.00
1614;DHT22;800;48.824;9.346;2022-07-29T13:39:34;27.80;52.10
1614;DHT22;800;48.824;9.346;2022-07-29T13:42:01;27.90;52.20
1614;DHT22;800;48.824;9.346;2022-07-29T13:44:26;28.10;52.00
1614;DHT22;800;48.824;9.346;2022-07-29T13:46:52;28.20;52.10
1614;DHT22;800;48.824;9.346;2022-07-29T13:49:18;28.30;52.00
1614;DHT22;800;48.824;9.346;2022-07-29T13:51:43;28.20;52.10
1614;DHT22;800;48.824;9.346;2022-07-29T13:54:09;28.30;52.20
1614;DHT22;800;48.824;9.346;2022-07-29T13:56:34;28.30;51.50
1614;DHT22;800;48.824;9.346;2022-07-29T13:59:00;28.40;51.70
1614;DHT22;800;48.824;9.346;2022-07-29T14:01:26;28.30;51.60
1614;DHT22;800;48.824;9.346;2022-07-29T14:03:53;28.40;51.80
1614;DHT22;800;48.824;9.346;2022-07-29T14:06:18;28.40;52.20
1614;DHT22;800;48.824;9.346;2022-07-29T14:08:44;28.40;53.10
1614;DHT22;800;48.824;9.346;2022-07-29T14:11:10;28.30;53.20
1614;DHT22;800;48.824;9.346;2022-07-29T14:13:35;27.70;55.10
1614;DHT22;800;48.824;9.346;2022-07-29T14:16:01;27.80;54.90
1614;DHT22;800;48.824;9.346;2022-07-29T14:18:26;28.00;54.60
1614;DHT22;800;48.824;9.346;2022-07-29T14:20:52;28.30;54.30
1614;DHT22;800;48.824;9.346;2022-07-29T14:23:18;27.90;52.90
1614;DHT22;800;48.824;9.346;2022-07-29T14:25:43;27.20;56.50
1614;DHT22;800;48.824;9.346;2022-07-29T14:28:09;27.40;56.50
1614;DHT22;800;48.824;9.346;2022-07-29T14:30:35;27.80;55.70
1614;DHT22;800;48.824;9.346;2022-07-29T14:33:00;28.10;54.80
1614;DHT22;800;48.824;9.346;2022-07-29T14:35:26;28.20;54.20
1614;DHT22;800;48.824;9.346;2022-07-29T14:37:51;28.50;54.10
1614;DHT22;800;48.824;9.346;2022-07-29T14:40:17;28.60;54.00
1614;DHT22;800;48.824;9.346;2022-07-29T14:42:43;28.60;53.70
1614;DHT22;800;48.824;9.346;2022-07-29T14:45:09;28.70;53.20
1614;DHT22;800;48.824;9.346;2022-07-29T14:47:35;28.80;53.00
1614;DHT22;800;48.824;9.346;2022-07-29T14:50:00;28.80;53.20
1614;DHT22;800;48.824;9.346;2022-07-29T14:52:26;28.80;53.40
1614;DHT22;800;48.824;9.346;2022-07-29T14:54:52;28.80;53.20
1614;DHT22;800;48.824;9.346;2022-07-29T14:57:17;28.80;53.00
1614;DHT22;800;48.824;9.346;2022-07-29T14:59:43;28.80;53.10
1614;DHT22;800;48.824;9.346;2022-07-29T15:02:08;28.80;52.80
1614;DHT22;800;48.824;9.346;2022-07-29T15:04:34;28.90;53.50
1614;DHT22;800;48.824;9.346;2022-07-29T15:07:00;28.60;54.20
1614;DHT22;800;48.824;9.346;2022-07-29T15:09:25;28.50;54.60
1614;DHT22;800;48.824;9.346;2022-07-29T15:11:51;28.50;54.20
1614;DHT22;800;48.824;9.346;2022-07-29T15:14:16;28.30;54.10
1614;DHT22;800;48.824;9.346;2022-07-29T15:16:42;28.10;54.70
1614;DHT22;800;48.824;9.346;2022-07-29T15:19:11;28.00;54.90
1614;DHT22;800;48.824;9.346;2022-07-29T15:21:36;28.30;55.00
1614;DHT22;800;48.824;9.346;2022-07-29T15:24:02;28.50;55.10
1614;DHT22;800;48.824;9.346;2022-07-29T15:26:28;28.60;54.80
1614;DHT22;800;48.824;9.346;2022-07-29T15:28:54;28.60;55.00
1614;DHT22;800;48.824;9.346;2022-07-29T15:31:21;28.70;54.90
1614;DHT22;800;48.824;9.346;2022-07-29T15:33:47;28.50;55.70
1614;DHT22;800;48.824;9.346;2022-07-29T15:36:12;28.40;55.60
1614;DHT22;800;48.824;9.346;2022-07-29T15:38:39;28.40;55.50
1614;DHT22;800;48.824;9.346;2022-07-29T15:41:06;28.30;55.70
1614;DHT22;800;48.824;9.346;2022-07-29T15:43:32;28.30;55.10
1614;DHT22;800;48.824;9.346;2022-07-29T15:46:00;28.20;55.40
1614;DHT22;800;48.824;9.346;2022-07-29T15:48:44;28.10;55.60
1614;DHT22;800;48.824;9.346;2022-07-29T15:51:09;27.80;55.90
1614;DHT22;800;48.824;9.346;2022-07-29T15:53:35;27.70;55.70
1614;DHT22;800;48.824;9.346;2022-07-29T15:56:00;27.80;55.70
1614;DHT22;800;48.824;9.346;2022-07-29T15:58:26;28.00;55.30
1614;DHT22;800;48.824;9.346;2022-07-29T16:00:52;28.00;55.30
1614;DHT22;800;48.824;9.346;2022-07-29T16:03:18;28.20;54.90
1614;DHT22;800;48.824;9.346;2022-07-29T16:05:44;28.10;55.10
1614;DHT22;800;48.824;9.346;2022-07-29T16:08:09;27.90;55.40
1614;DHT22;800;48.824;9.346;2022-07-29T16:10:35;27.80;55.40
1614;DHT22;800;48.824;9.346;2022-07-29T16:13:01;27.80;55.50
1614;DHT22;800;48.824;9.346;2022-07-29T16:15:26;28.00;54.80
1614;DHT22;800;48.824;9.346;2022-07-29T16:17:52;28.20;55.00
1614;DHT22;800;48.824;9.346;2022-07-29T16:20:17;28.20;55.40
1614;DHT22;800;48.824;9.346;2022-07-29T16:22:43;28.40;54.50
1614;DHT22;800;48.824;9.346;2022-07-29T16:25:09;28.70;54.10
1614;DHT22;800;48.824;9.346;2022-07-29T16:27:34;28.80;53.90
1614;DHT22;800;48.824;9.346;2022-07-29T16:30:00;28.80;53.50
1614;DHT22;800;48.824;9.346;2022-07-29T16:32:26;28.90;53.40
1614;DHT22;800;48.824;9.346;2022-07-29T16:34:51;29.00;53.40
1614;DHT22;800;48.824;9.346;2022-07-29T16:37:17;29.00;53.50
1614;DHT22;800;48.824;9.346;2022-07-29T16:39:43;29.00;53.10
1614;DHT22;800;48.824;9.346;2022-07-29T16:42:08;29.10;52.90
1614;DHT22;800;48.824;9.346;2022-07-29T16:44:34;29.00;53.40
1614;DHT22;800;48.824;9.346;2022-07-29T16:46:59;28.70;54.00
1614;DHT22;800;48.824;9.346;2022-07-29T16:49:26;28.50;54.30
1614;DHT22;800;48.824;9.346;2022-07-29T16:51:51;28.20;54.60
1614;DHT22;800;48.824;9.346;2022-07-29T16:54:18;28.00;55.30
1614;DHT22;800;48.824;9.346;2022-07-29T16:56:44;28.00;55.50
1614;DHT22;800;48.824;9.346;2022-07-29T16:59:10;28.10;55.50
1614;DHT22;800;48.824;9.346;2022-07-29T17:01:36;28.30;55.20
1614;DHT22;800;48.824;9.346;2022-07-29T17:04:01;28.40;54.40
1614;DHT22;800;48.824;9.346;2022-07-29T17:06:30;28.10;54.20
1614;DHT22;800;48.824;9.346;2022-07-29T17:08:57;28.00;54.10
1614;DHT22;800;48.824;9.346;2022-07-29T17:11:23;28.10;54.20
1614;DHT22;800;48.824;9.346;2022-07-29T17:13:48;28.40;53.90
1614;DHT22;800;48.824;9.346;2022-07-29T17:16:14;28.40;53.20
1614;DHT22;800;48.824;9.346;2022-07-29T17:18:41;28.50;53.10
1614;DHT22;800;48.824;9.346;2022-07-29T17:21:06;28.50;53.00
1614;DHT22;800;48.824;9.346;2022-07-29T17:23:32;28.30;53.20